createdAt,value
2019-02-23T00:01:48.498Z,74.40
2019-02-23T00:11:50.519Z,74.10
2019-02-23T00:21:52.656Z,74.10
2019-02-23T00:31:54.762Z,74.10
2019-02-23T00:41:56.904Z,73.90
2019-02-23T00:52:00.856Z,73.70
2019-02-23T01:02:03.014Z,73.70
2019-02-23T01:12:05.157Z,73.10
2019-02-23T01:22:07.439Z,72.60
2019-02-23T01:32:09.676Z,72.40
2019-02-23T01:42:11.651Z,72.20
2019-02-23T01:52:13.621Z,71.80
2019-02-23T02:02:15.730Z,71.80
2019-02-23T02:12:17.836Z,70.80
2019-02-23T02:22:20.141Z,70.60
2019-02-23T02:32:22.124Z,70.40
2019-02-23T02:42:24.128Z,70.30
2019-02-23T02:52:26.461Z,70.40
2019-02-23T03:02:28.438Z,70.50
2019-02-23T03:12:30.383Z,70.30
2019-02-23T03:22:32.626Z,70.50
2019-02-23T03:32:34.791Z,70.40
2019-02-23T03:42:37.008Z,70.50
2019-02-23T03:52:39.315Z,70.70
2019-02-23T04:02:41.394Z,71.00
2019-02-23T04:12:43.749Z,70.80
2019-02-23T04:22:45.715Z,71.10
2019-02-23T04:32:47.793Z,71.30
2019-02-23T04:42:49.727Z,71.20
2019-02-23T04:52:51.719Z,71.40
2019-02-23T05:02:53.822Z,72.30
2019-02-23T05:12:56.007Z,71.60
2019-02-23T05:22:58.059Z,71.60
2019-02-23T05:33:00.005Z,71.60
2019-02-23T05:43:02.207Z,71.90
2019-02-23T05:53:04.457Z,72.00
2019-02-23T06:03:06.424Z,72.10
2019-02-23T06:13:08.696Z,72.00
2019-02-23T06:23:10.800Z,72.00
2019-02-23T06:33:12.773Z,71.50
2019-02-23T06:43:15.058Z,71.00
2019-02-23T06:53:17.067Z,70.80
2019-02-23T07:03:19.258Z,70.80
2019-02-23T07:13:21.359Z,70.60
2019-02-23T07:23:23.338Z,70.20
2019-02-23T07:33:32.923Z,70.00
2019-02-23T07:43:29.099Z,69.50
2019-02-23T07:53:31.086Z,68.70
2019-02-23T08:03:33.068Z,68.10
2019-02-23T08:13:35.191Z,67.70
2019-02-23T08:23:37.104Z,67.10
2019-02-23T08:33:39.363Z,66.50
2019-02-23T08:43:42.082Z,65.90
2019-02-23T08:53:44.234Z,65.20
2019-02-23T09:03:46.335Z,64.60
2019-02-23T09:13:48.446Z,64.20
2019-02-23T09:23:50.615Z,63.30
2019-02-23T09:33:52.707Z,62.80
2019-02-23T09:43:54.870Z,62.20
2019-02-23T09:53:56.972Z,61.30
2019-02-23T10:03:59.237Z,60.90
2019-02-23T10:14:01.571Z,60.40
2019-02-23T10:24:03.537Z,59.80
2019-02-23T10:34:05.783Z,59.10
2019-02-23T10:44:08.317Z,58.20
2019-02-23T10:54:10.270Z,57.80
2019-02-23T11:04:31.702Z,56.70
2019-02-23T11:14:34.027Z,55.10
2019-02-23T11:24:36.001Z,54.10
2019-02-23T11:34:37.951Z,53.60
2019-02-23T11:44:40.218Z,52.40
2019-02-23T11:54:44.117Z,51.30
2019-02-23T12:04:46.117Z,50.30
2019-02-23T12:14:48.466Z,49.60
2019-02-23T12:24:50.490Z,48.40
2019-02-23T12:34:52.662Z,47.30
2019-02-23T12:44:54.619Z,46.30
2019-02-23T12:54:56.646Z,44.50
2019-02-23T13:04:58.725Z,43.20
2019-02-23T13:15:14.295Z,42.30
2019-02-23T13:25:43.162Z,41.90
2019-02-23T13:36:37.917Z,41.50
2019-02-23T13:47:43.387Z,40.30
2019-02-23T13:57:58.773Z,39.00
2019-02-23T14:08:24.070Z,38.60
2019-02-23T14:18:58.123Z,38.20
2019-02-23T14:29:31.589Z,38.20
2019-02-23T14:40:08.626Z,37.50
2019-02-23T14:50:55.932Z,37.50
2019-02-23T15:01:25.079Z,37.30
2019-02-23T15:11:49.938Z,36.60
2019-02-23T15:22:36.439Z,36.40
2019-02-23T15:33:32.083Z,35.80
2019-02-23T15:43:45.106Z,36.10
2019-02-23T15:53:47.600Z,35.40
2019-02-23T16:03:49.543Z,35.40
2019-02-23T16:13:51.780Z,35.20
2019-02-23T16:23:53.855Z,34.80
2019-02-23T16:33:55.873Z,34.40
2019-02-23T16:43:57.828Z,34.90
2019-02-23T16:54:00.126Z,34.00
2019-02-23T17:04:02.088Z,33.20
2019-02-23T17:14:04.115Z,33.00
2019-02-23T17:24:06.292Z,33.10
2019-02-23T17:34:08.571Z,33.20
2019-02-23T17:44:12.467Z,33.40
2019-02-23T17:54:14.543Z,33.70
2019-02-23T18:04:16.604Z,34.20
2019-02-23T18:14:18.767Z,34.40
2019-02-23T18:24:21.058Z,34.60
2019-02-23T18:34:23.544Z,34.80
2019-02-23T18:44:25.742Z,35.10
2019-02-23T18:54:27.809Z,36.30
2019-02-23T19:04:29.814Z,36.60
2019-02-23T19:14:31.863Z,37.00
2019-02-23T19:24:34.045Z,37.20
2019-02-23T19:34:36.302Z,37.50
2019-02-23T19:44:38.419Z,37.70
2019-02-23T19:54:40.535Z,37.60
2019-02-23T20:04:42.708Z,37.80
2019-02-23T20:14:45.363Z,38.00
2019-02-23T20:24:48.498Z,38.00
2019-02-23T20:34:50.839Z,38.10
2019-02-23T20:44:52.822Z,38.20
2019-02-23T20:54:54.827Z,38.20
2019-02-23T21:04:56.808Z,38.30
2019-02-23T21:14:59.054Z,38.30
2019-02-23T21:25:01.316Z,38.40
2019-02-23T21:35:04.200Z,38.50
2019-02-23T21:45:07.699Z,38.70
2019-02-23T21:55:09.960Z,38.70
2019-02-23T22:05:12.839Z,39.00
2019-02-23T22:15:15.421Z,39.10
2019-02-23T22:25:17.484Z,39.10
2019-02-23T22:35:19.454Z,39.30
2019-02-23T22:45:21.403Z,39.20
2019-02-23T22:55:23.386Z,39.20
2019-02-23T23:05:25.595Z,39.30
2019-02-23T23:15:27.919Z,39.20
2019-02-23T23:25:29.984Z,39.10
2019-02-23T23:35:32.288Z,39.20
2019-02-23T23:45:34.631Z,39.30
2019-02-23T23:55:36.579Z,39.30
